Time;durP1;ratioP1;P1;durP2;ratioP2;P2;SDS_P1;SDS_P2;PMS_P1;PMS_P2;Temp;Humidity;BMP_temperature;BMP_pressure;BME280_temperature;BME280_humidity;BME280_pressure;Samples;Min_cycle;Max_cycle;Signal;HPM_P1;HPM_P2
2021/04/10 00:00:57;;;;;;;3.10;0.80;;;;;;;;;;5119161;28;20311;-75
2021/04/10 00:03:24;;;;;;;2.80;0.77;;;;;;;;;;5119726;28;20257;-75
2021/04/10 00:05:51;;;;;;;2.53;0.70;;;;;;;;;;5119589;28;20296;-74
2021/04/10 00:08:18;;;;;;;1.00;0.60;;;;;;;;;;5119355;28;20291;-74
2021/04/10 00:10:45;;;;;;;0.60;0.60;;;;;;;;;;5119137;28;20288;-74
2021/04/10 00:13:12;;;;;;;2.00;0.60;;;;;;;;;;5118680;28;20236;-74
2021/04/10 00:15:39;;;;;;;0.83;0.70;;;;;;;;;;5105638;28;20308;-74
2021/04/10 00:18:07;;;;;;;1.30;0.67;;;;;;;;;;5119144;28;20215;-74
2021/04/10 00:20:34;;;;;;;0.63;0.53;;;;;;;;;;5118989;28;20227;-74
2021/04/10 00:23:01;;;;;;;1.03;0.97;;;;;;;;;;5118990;28;20205;-74
2021/04/10 00:25:28;;;;;;;1.40;0.60;;;;;;;;;;5118535;28;20731;-74
2021/04/10 00:27:55;;;;;;;0.60;0.60;;;;;;;;;;5118251;28;20201;-74
2021/04/10 00:30:22;;;;;;;2.20;0.80;;;;;;;;;;5118737;28;20205;-73
2021/04/10 00:32:50;;;;;;;0.50;0.50;;;;;;;;;;5118946;28;20213;-74
2021/04/10 00:35:18;;;;;;;0.60;0.60;;;;;;;;;;5118712;28;20307;-75
2021/04/10 00:37:45;;;;;;;1.27;0.60;;;;;;;;;;5118864;28;20268;-74
2021/04/10 00:40:12;;;;;;;1.07;0.70;;;;;;;;;;5118474;28;20298;-74
2021/04/10 00:42:40;;;;;;;1.50;0.70;;;;;;;;;;5118315;28;20288;-74
2021/04/10 00:45:08;;;;;;;2.30;0.63;;;;;;;;;;5118669;28;20269;-74
2021/04/10 00:47:35;;;;;;;0.90;0.77;;;;;;;;;;5118510;28;20249;-74
2021/04/10 00:50:02;;;;;;;1.03;0.70;;;;;;;;;;5118462;28;20212;-74
2021/04/10 00:52:30;;;;;;;1.03;0.60;;;;;;;;;;5118522;28;20264;-74
2021/04/10 00:54:58;;;;;;;2.33;0.67;;;;;;;;;;5118151;28;20762;-74
2021/04/10 00:57:25;;;;;;;1.37;0.60;;;;;;;;;;5118078;28;20232;-74
2021/04/10 00:59:52;;;;;;;1.27;1.17;;;;;;;;;;5118486;28;20273;-74
2021/04/10 01:02:19;;;;;;;1.17;0.60;;;;;;;;;;5118172;28;20636;-74
2021/04/10 01:04:46;;;;;;;2.07;0.70;;;;;;;;;;5118301;28;20587;-74
2021/04/10 01:07:13;;;;;;;1.47;0.80;;;;;;;;;;5118253;28;20240;-74
2021/04/10 01:09:41;;;;;;;1.40;0.80;;;;;;;;;;5118195;28;20296;-74
2021/04/10 01:12:14;;;;;;;2.37;0.70;;;;;;;;;;5117975;28;20215;-74
2021/04/10 01:14:44;;;;;;;0.80;0.80;;;;;;;;;;5118366;28;20232;-74
2021/04/10 01:17:13;;;;;;;1.57;0.73;;;;;;;;;;5118086;28;20240;-74
2021/04/10 01:20:00;;;;;;;1.87;0.90;;;;;;;;;;5118266;28;20230;-74
2021/04/10 01:22:38;;;;;;;0.73;0.70;;;;;;;;;;5118326;28;20235;-74
2021/04/10 01:25:07;;;;;;;4.93;1.00;;;;;;;;;;5117855;28;20240;-74
2021/04/10 01:27:38;;;;;;;0.40;0.40;;;;;;;;;;5117706;28;20611;-74
2021/04/10 01:30:09;;;;;;;2.77;0.63;;;;;;;;;;5118172;28;20280;-74
2021/04/10 01:32:38;;;;;;;1.23;0.60;;;;;;;;;;5117920;28;20236;-74
2021/04/10 01:35:08;;;;;;;2.47;0.70;;;;;;;;;;5118066;28;20227;-74
2021/04/10 01:37:37;;;;;;;3.13;1.00;;;;;;;;;;5118273;28;20240;-74
2021/04/10 01:40:06;;;;;;;1.13;1.03;;;;;;;;;;5122143;28;20307;-74
2021/04/10 01:42:33;;;;;;;1.47;0.73;;;;;;;;;;5121696;28;20656;-74
2021/04/10 01:45:01;;;;;;;0.50;0.50;;;;;;;;;;5121860;28;20756;-74
2021/04/10 01:47:30;;;;;;;2.37;0.77;;;;;;;;;;5121872;28;20288;-74
2021/04/10 01:49:57;;;;;;;0.83;0.83;;;;;;;;;;5121977;28;20226;-74
2021/04/10 01:52:25;;;;;;;3.23;0.80;;;;;;;;;;5121665;28;20747;-74
2021/04/10 01:54:52;;;;;;;2.77;1.00;;;;;;;;;;5121827;28;20303;-74
2021/04/10 01:57:19;;;;;;;0.93;0.77;;;;;;;;;;5121395;28;20288;-74
2021/04/10 01:59:47;;;;;;;0.83;0.73;;;;;;;;;;5121586;28;20739;-74
2021/04/10 02:02:15;;;;;;;3.47;0.97;;;;;;;;;;5121437;28;20538;-74
2021/04/10 02:04:47;;;;;;;0.97;0.90;;;;;;;;;;5121433;28;20633;-74
2021/04/10 02:07:14;;;;;;;1.33;1.17;;;;;;;;;;5121761;28;20209;-74
2021/04/10 02:09:44;;;;;;;0.87;0.80;;;;;;;;;;5121380;28;20215;-74
2021/04/10 02:12:11;;;;;;;1.80;0.80;;;;;;;;;;5121121;28;20216;-74
2021/04/10 02:14:38;;;;;;;2.83;1.13;;;;;;;;;;5121527;28;20312;-74
2021/04/10 02:17:07;;;;;;;0.93;0.80;;;;;;;;;;5121440;28;20200;-74
2021/04/10 02:19:34;;;;;;;1.70;0.80;;;;;;;;;;5121582;28;20204;-74
2021/04/10 02:22:03;;;;;;;2.50;0.70;;;;;;;;;;5121243;28;20256;-74
2021/04/10 02:24:30;;;;;;;1.00;0.90;;;;;;;;;;5120869;28;20323;-75
2021/04/10 02:26:57;;;;;;;2.37;1.00;;;;;;;;;;5120842;28;20764;-74
2021/04/10 02:29:24;;;;;;;1.70;0.90;;;;;;;;;;5121080;28;20243;-74
2021/04/10 02:31:54;;;;;;;1.10;0.90;;;;;;;;;;5121203;28;20243;-74
2021/04/10 02:34:23;;;;;;;1.33;0.90;;;;;;;;;;5121121;28;20260;-74
2021/04/10 02:36:52;;;;;;;2.07;1.00;;;;;;;;;;5120837;28;20645;-74
2021/04/10 02:39:23;;;;;;;2.83;0.93;;;;;;;;;;5121071;28;20201;-74
2021/04/10 02:41:52;;;;;;;2.37;1.07;;;;;;;;;;5120485;28;20256;-74
2021/04/10 02:44:22;;;;;;;2.47;1.00;;;;;;;;;;5120616;28;20256;-74
2021/04/10 02:46:50;;;;;;;1.83;1.13;;;;;;;;;;5120553;28;20212;-74
2021/04/10 02:49:17;;;;;;;2.03;1.00;;;;;;;;;;5119610;28;20208;-74
2021/04/10 02:51:47;;;;;;;2.30;1.00;;;;;;;;;;5120583;28;20209;-74
2021/04/10 02:54:17;;;;;;;1.90;1.10;;;;;;;;;;5116888;28;20231;-74
2021/04/10 02:56:46;;;;;;;2.77;1.03;;;;;;;;;;5120238;28;20540;-73
2021/04/10 02:59:13;;;;;;;2.23;0.90;;;;;;;;;;5116209;28;20682;-73
2021/04/10 03:01:41;;;;;;;2.37;1.00;;;;;;;;;;5113277;28;20300;-74
2021/04/10 03:04:10;;;;;;;2.20;1.10;;;;;;;;;;5119241;28;20205;-74
2021/04/10 03:06:37;;;;;;;1.27;0.77;;;;;;;;;;5120498;28;20709;-74
2021/04/10 03:09:06;;;;;;;1.47;0.90;;;;;;;;;;5120214;28;20280;-74
2021/04/10 03:11:33;;;;;;;0.77;0.73;;;;;;;;;;5120114;28;20228;-74
2021/04/10 03:14:03;;;;;;;3.03;0.93;;;;;;;;;;5119587;28;20232;-74
2021/04/10 03:16:31;;;;;;;1.57;0.90;;;;;;;;;;5119916;28;20287;-74
2021/04/10 03:18:59;;;;;;;1.97;1.00;;;;;;;;;;5120214;28;20284;-74
2021/04/10 03:21:26;;;;;;;0.70;0.70;;;;;;;;;;5119769;28;20328;-73
2021/04/10 03:23:53;;;;;;;0.93;0.80;;;;;;;;;;5119968;28;20240;-74
2021/04/10 03:26:20;;;;;;;1.70;0.83;;;;;;;;;;5119593;28;20673;-74
2021/04/10 03:28:48;;;;;;;1.13;0.80;;;;;;;;;;5119705;28;20696;-74
2021/04/10 03:31:16;;;;;;;1.43;0.80;;;;;;;;;;5119991;28;20264;-74
2021/04/10 03:33:43;;;;;;;0.93;0.80;;;;;;;;;;5119938;28;20205;-74
2021/04/10 03:36:10;;;;;;;2.10;0.97;;;;;;;;;;5119751;28;20263;-74
2021/04/10 03:38:39;;;;;;;0.83;0.80;;;;;;;;;;5119926;28;20243;-74
2021/04/10 03:41:07;;;;;;;1.43;0.67;;;;;;;;;;5119662;28;20316;-74
2021/04/10 03:43:34;;;;;;;4.33;1.10;;;;;;;;;;5119496;28;20205;-74
2021/04/10 03:46:02;;;;;;;1.43;0.77;;;;;;;;;;5119269;28;20327;-73
2021/04/10 03:48:30;;;;;;;2.37;0.97;;;;;;;;;;5109459;28;20243;-73
2021/04/10 03:50:57;;;;;;;1.03;0.70;;;;;;;;;;5119617;28;20205;-74
2021/04/10 03:53:24;;;;;;;2.53;1.07;;;;;;;;;;5119403;28;20209;-74
2021/04/10 03:55:51;;;;;;;0.90;0.83;;;;;;;;;;5119346;28;20252;-73
2021/04/10 03:58:18;;;;;;;1.60;0.73;;;;;;;;;;5119155;28;20240;-74
2021/04/10 04:00:45;;;;;;;0.80;0.80;;;;;;;;;;5118976;28;21189;-74
2021/04/10 04:03:12;;;;;;;2.83;0.70;;;;;;;;;;5119359;28;20228;-74
2021/04/10 04:05:40;;;;;;;2.30;0.73;;;;;;;;;;5119209;28;20307;-74
2021/04/10 04:08:07;;;;;;;1.07;0.87;;;;;;;;;;5119027;27;20575;-74
2021/04/10 04:10:34;;;;;;;0.73;0.73;;;;;;;;;;5118978;28;20747;-74
2021/04/10 04:13:01;;;;;;;1.03;0.70;;;;;;;;;;5118667;28;20254;-74
2021/04/10 04:15:28;;;;;;;3.00;0.80;;;;;;;;;;5118774;28;20256;-74
2021/04/10 04:17:55;;;;;;;1.03;0.80;;;;;;;;;;5118865;28;20243;-73
2021/04/10 04:20:22;;;;;;;3.53;0.90;;;;;;;;;;5118992;28;20208;-74
2021/04/10 04:22:50;;;;;;;0.83;0.80;;;;;;;;;;5119002;28;20295;-74
2021/04/10 04:25:17;;;;;;;0.90;0.90;;;;;;;;;;5118473;28;20323;-74
2021/04/10 04:27:51;;;;;;;0.70;0.70;;;;;;;;;;5118541;28;20204;-74
2021/04/10 04:30:19;;;;;;;1.17;0.90;;;;;;;;;;5118881;28;20209;-73
2021/04/10 04:32:46;;;;;;;0.67;0.63;;;;;;;;;;5118609;28;20736;-74
2021/04/10 04:35:14;;;;;;;1.33;0.60;;;;;;;;;;5118494;28;20636;-74
2021/04/10 04:37:41;;;;;;;1.40;0.70;;;;;;;;;;5118567;28;20232;-74
2021/04/10 04:40:09;;;;;;;1.10;1.00;;;;;;;;;;5118535;28;20632;-74
2021/04/10 04:42:36;;;;;;;2.00;0.80;;;;;;;;;;5118165;28;20205;-74
2021/04/10 04:45:04;;;;;;;0.80;0.70;;;;;;;;;;5118372;28;20670;-74
2021/04/10 04:47:31;;;;;;;0.97;0.87;;;;;;;;;;5118326;28;20243;-74
2021/04/10 04:49:59;;;;;;;2.03;0.70;;;;;;;;;;5118696;28;20292;-74
2021/04/10 04:52:28;;;;;;;1.60;1.03;;;;;;;;;;5118293;28;20634;-73
2021/04/10 04:54:56;;;;;;;1.47;0.90;;;;;;;;;;5118497;28;20311;-74
2021/04/10 04:57:23;;;;;;;0.60;0.60;;;;;;;;;;5118064;28;20288;-73
2021/04/10 04:59:50;;;;;;;2.40;0.93;;;;;;;;;;5118679;28;20272;-74
2021/04/10 05:02:17;;;;;;;1.73;0.70;;;;;;;;;;5118411;28;20263;-74
2021/04/10 05:04:45;;;;;;;1.13;1.03;;;;;;;;;;5118191;28;20700;-74
2021/04/10 05:07:11;;;;;;;2.43;0.67;;;;;;;;;;5118566;28;20299;-74
2021/04/10 05:09:38;;;;;;;2.47;0.83;;;;;;;;;;5118469;28;20287;-74
2021/04/10 05:12:07;;;;;;;1.37;0.90;;;;;;;;;;5117951;28;20197;-74
2021/04/10 05:14:34;;;;;;;0.73;0.60;;;;;;;;;;5121812;28;20224;-74
2021/04/10 05:17:01;;;;;;;1.17;0.73;;;;;;;;;;5122694;28;20216;-74
2021/04/10 05:19:29;;;;;;;1.00;0.87;;;;;;;;;;5122523;28;20255;-74
2021/04/10 05:21:56;;;;;;;1.93;0.90;;;;;;;;;;5122219;28;20284;-73
2021/04/10 05:24:23;;;;;;;1.20;1.10;;;;;;;;;;5122084;28;20300;-73
2021/04/10 05:26:50;;;;;;;1.83;0.73;;;;;;;;;;5121965;28;20224;-74
2021/04/10 05:29:17;;;;;;;0.70;0.50;;;;;;;;;;5122199;28;20232;-73
2021/04/10 05:31:46;;;;;;;1.30;0.90;;;;;;;;;;5122137;28;20317;-73
2021/04/10 05:34:13;;;;;;;2.60;1.00;;;;;;;;;;5122146;28;20634;-73
2021/04/10 05:36:40;;;;;;;2.90;0.80;;;;;;;;;;5122365;28;20263;-73
2021/04/10 05:39:07;;;;;;;2.27;0.97;;;;;;;;;;5122432;28;20236;-73
2021/04/10 05:41:34;;;;;;;1.50;0.80;;;;;;;;;;5121970;28;20289;-73
2021/04/10 05:44:01;;;;;;;0.87;0.80;;;;;;;;;;5121841;28;20652;-73
2021/04/10 05:46:28;;;;;;;0.53;0.53;;;;;;;;;;5121759;28;20684;-73
2021/04/10 05:48:56;;;;;;;6.47;0.70;;;;;;;;;;5122006;28;20205;-73
2021/04/10 05:51:23;;;;;;;2.83;0.70;;;;;;;;;;5122130;28;20200;-73
2021/04/10 05:53:50;;;;;;;2.70;0.70;;;;;;;;;;5121766;28;20288;-73
2021/04/10 05:56:17;;;;;;;0.63;0.63;;;;;;;;;;5121566;28;20304;-72
2021/04/10 05:58:44;;;;;;;1.00;0.70;;;;;;;;;;5121529;28;20204;-73
2021/04/10 06:01:10;;;;;;;1.87;0.80;;;;;;;;;;5121803;28;20307;-73
2021/04/10 06:03:38;;;;;;;1.00;0.63;;;;;;;;;;5121585;28;20721;-73
2021/04/10 06:06:06;;;;;;;1.17;0.80;;;;;;;;;;5121293;28;20303;-73
2021/04/10 06:08:33;;;;;;;1.20;0.90;;;;;;;;;;5120696;28;20728;-72
2021/04/10 06:11:00;;;;;;;2.30;0.67;;;;;;;;;;5121079;28;20236;-72
2021/04/10 06:13:27;;;;;;;0.73;0.73;;;;;;;;;;5120030;27;20233;-72
2021/04/10 06:15:54;;;;;;;2.63;0.90;;;;;;;;;;5121364;28;20568;-72
2021/04/10 06:18:21;;;;;;;1.00;0.77;;;;;;;;;;5120218;28;20232;-72
2021/04/10 06:20:48;;;;;;;1.03;0.80;;;;;;;;;;5120988;27;20249;-72
2021/04/10 06:23:16;;;;;;;3.07;0.90;;;;;;;;;;5122648;27;20201;-71
2021/04/10 06:25:43;;;;;;;1.13;0.70;;;;;;;;;;5140826;27;20311;-71
2021/04/10 06:28:10;;;;;;;1.87;0.83;;;;;;;;;;5138894;27;20228;-71
2021/04/10 06:30:37;;;;;;;1.97;0.97;;;;;;;;;;5120299;28;20209;-71
2021/04/10 06:33:04;;;;;;;1.27;1.10;;;;;;;;;;5121487;27;20208;-72
2021/04/10 06:35:31;;;;;;;0.70;0.50;;;;;;;;;;5122468;27;20216;-71
2021/04/10 06:37:58;;;;;;;3.17;0.90;;;;;;;;;;5123182;27;20240;-72
2021/04/10 06:40:26;;;;;;;1.13;0.80;;;;;;;;;;5120406;28;20228;-72
2021/04/10 06:42:55;;;;;;;2.83;1.67;;;;;;;;;;5120705;27;20264;-71
2021/04/10 06:45:21;;;;;;;3.20;1.10;;;;;;;;;;5120046;28;20307;-72
2021/04/10 06:47:50;;;;;;;0.60;0.60;;;;;;;;;;5118331;28;20287;-72
2021/04/10 06:50:18;;;;;;;3.00;0.80;;;;;;;;;;5122598;27;20621;-72
2021/04/10 06:52:46;;;;;;;1.50;0.90;;;;;;;;;;5120013;28;20284;-72
2021/04/10 06:55:13;;;;;;;2.30;0.90;;;;;;;;;;5119969;28;20299;-72
2021/04/10 06:57:45;;;;;;;1.23;0.80;;;;;;;;;;5121625;27;20280;-72
2021/04/10 07:00:12;;;;;;;0.60;0.60;;;;;;;;;;5120127;28;20280;-72
2021/04/10 07:02:40;;;;;;;5.30;2.70;;;;;;;;;;5120534;27;20307;-72
2021/04/10 07:05:07;;;;;;;2.50;1.00;;;;;;;;;;5110850;28;20217;-72
2021/04/10 07:07:35;;;;;;;1.00;0.73;;;;;;;;;;5105931;28;20209;-72
2021/04/10 07:10:03;;;;;;;5.80;1.00;;;;;;;;;;5106825;28;20202;-73
2021/04/10 07:12:30;;;;;;;2.30;0.80;;;;;;;;;;5106377;28;20201;-73
2021/04/10 07:14:58;;;;;;;1.40;0.80;;;;;;;;;;5105053;27;20590;-73
2021/04/10 07:17:25;;;;;;;1.00;0.67;;;;;;;;;;5140923;27;20235;-73
2021/04/10 07:19:52;;;;;;;1.53;0.90;;;;;;;;;;5114952;27;20619;-74
2021/04/10 07:22:19;;;;;;;1.63;1.47;;;;;;;;;;5105646;28;20708;-74
2021/04/10 07:24:47;;;;;;;2.80;0.80;;;;;;;;;;5103279;28;20256;-73
2021/04/10 07:27:15;;;;;;;0.97;0.87;;;;;;;;;;5108280;28;20277;-73
2021/04/10 07:29:43;;;;;;;4.43;1.23;;;;;;;;;;5105979;28;20200;-72
2021/04/10 07:32:24;;;;;;;4.90;1.00;;;;;;;;;;5106963;28;20281;-72
2021/04/10 07:34:52;;;;;;;1.80;0.77;;;;;;;;;;5109634;28;20221;-71
2021/04/10 07:37:29;;;;;;;2.20;1.10;;;;;;;;;;5104412;28;20228;-73
2021/04/10 07:39:56;;;;;;;4.00;1.67;;;;;;;;;;5105228;28;20232;-74
2021/04/10 07:42:24;;;;;;;1.67;1.03;;;;;;;;;;5106443;28;20281;-73
2021/04/10 07:44:51;;;;;;;2.87;1.10;;;;;;;;;;5114348;28;20308;-74
2021/04/10 07:47:18;;;;;;;0.70;0.70;;;;;;;;;;5109595;28;20284;-74
2021/04/10 07:49:46;;;;;;;2.17;0.83;;;;;;;;;;5104225;28;20201;-73
2021/04/10 07:52:13;;;;;;;1.23;0.70;;;;;;;;;;5113091;28;20288;-74
2021/04/10 07:54:43;;;;;;;3.40;1.23;;;;;;;;;;5119497;28;20255;-73
2021/04/10 07:57:10;;;;;;;5.17;1.33;;;;;;;;;;5118789;28;20578;-74
2021/04/10 07:59:53;;;;;;;11.90;5.83;;;;;;;;;;5119230;28;20213;-73
2021/04/10 08:02:21;;;;;;;5.17;1.30;;;;;;;;;;5119118;28;20293;-73
2021/04/10 08:04:55;;;;;;;1.70;0.90;;;;;;;;;;5111897;28;20663;-73
2021/04/10 08:07:26;;;;;;;1.47;0.60;;;;;;;;;;5106688;28;20253;-73
2021/04/10 08:09:56;;;;;;;3.47;0.80;;;;;;;;;;5106961;28;20232;-73
2021/04/10 08:12:26;;;;;;;0.77;0.70;;;;;;;;;;5104452;28;20222;-73
2021/04/10 08:14:53;;;;;;;1.40;0.77;;;;;;;;;;5107417;28;20312;-74
2021/04/10 08:17:33;;;;;;;2.20;0.80;;;;;;;;;;5113378;28;20205;-73
2021/04/10 08:20:17;;;;;;;0.80;0.70;;;;;;;;;;5119113;28;20265;-72
2021/04/10 08:22:44;;;;;;;1.20;0.73;;;;;;;;;;5118596;28;20316;-71
2021/04/10 08:25:12;;;;;;;2.23;0.73;;;;;;;;;;5105496;28;20272;-72
2021/04/10 08:27:39;;;;;;;1.57;0.90;;;;;;;;;;5105958;28;20656;-71
2021/04/10 08:30:07;;;;;;;1.93;0.97;;;;;;;;;;5106157;28;20336;-71
2021/04/10 08:32:33;;;;;;;1.00;1.00;;;;;;;;;;5105481;28;20384;-71
2021/04/10 08:35:00;;;;;;;5.10;1.23;;;;;;;;;;5102531;28;20697;-72
2021/04/10 08:37:29;;;;;;;2.10;0.90;;;;;;;;;;5107564;28;20197;-71
2021/04/10 08:39:56;;;;;;;6.03;1.27;;;;;;;;;;5103207;28;20197;-72
2021/04/10 08:42:24;;;;;;;1.40;0.70;;;;;;;;;;5101452;28;20268;-71
2021/04/10 08:44:52;;;;;;;1.33;0.73;;;;;;;;;;5105062;28;20260;-72
2021/04/10 08:47:19;;;;;;;3.50;0.80;;;;;;;;;;5118408;28;20231;-72
2021/04/10 08:49:48;;;;;;;3.60;1.13;;;;;;;;;;5117882;28;20210;-72
2021/04/10 08:52:19;;;;;;;0.77;0.77;;;;;;;;;;5118254;28;20233;-71
2021/04/10 08:54:49;;;;;;;0.70;0.70;;;;;;;;;;5118210;28;20308;-71
2021/04/10 08:57:16;;;;;;;3.07;0.90;;;;;;;;;;5117858;28;20268;-71
2021/04/10 08:59:44;;;;;;;1.80;1.00;;;;;;;;;;5118431;28;20208;-72
2021/04/10 09:02:14;;;;;;;2.53;0.90;;;;;;;;;;5118433;28;20237;-71
2021/04/10 09:04:59;;;;;;;1.13;0.80;;;;;;;;;;5118269;28;20229;-72
2021/04/10 09:07:45;;;;;;;0.80;0.80;;;;;;;;;;5118189;28;20209;-72
2021/04/10 09:10:33;;;;;;;1.20;1.00;;;;;;;;;;5118269;28;20409;-72
2021/04/10 09:13:15;;;;;;;1.57;0.77;;;;;;;;;;5117550;28;20204;-72
2021/04/10 09:15:42;;;;;;;2.50;0.70;;;;;;;;;;5117935;28;20730;-72
2021/04/10 09:18:10;;;;;;;2.77;0.80;;;;;;;;;;5117900;28;20287;-72
2021/04/10 09:20:50;;;;;;;2.27;0.80;;;;;;;;;;5118167;28;20291;-72
2021/04/10 09:23:27;;;;;;;2.47;0.80;;;;;;;;;;5117983;28;20254;-72
2021/04/10 09:26:06;;;;;;;2.43;1.00;;;;;;;;;;5118065;28;20304;-72
2021/04/10 09:28:33;;;;;;;5.03;1.00;;;;;;;;;;5117882;28;20215;-72
2021/04/10 09:31:01;;;;;;;2.97;1.23;;;;;;;;;;5117902;28;20236;-72
2021/04/10 09:33:34;;;;;;;1.67;0.97;;;;;;;;;;5117858;28;20735;-72
2021/04/10 09:36:01;;;;;;;1.03;0.80;;;;;;;;;;5118019;28;20231;-72
2021/04/10 09:38:38;;;;;;;2.00;1.30;;;;;;;;;;5118238;28;20291;-72
2021/04/10 09:41:06;;;;;;;4.50;1.10;;;;;;;;;;5117978;28;20233;-72
2021/04/10 09:43:33;;;;;;;2.73;1.00;;;;;;;;;;5117627;28;20712;-72
2021/04/10 09:46:00;;;;;;;1.93;0.90;;;;;;;;;;5118034;28;20256;-72
2021/04/10 09:48:28;;;;;;;4.17;1.13;;;;;;;;;;5117716;28;20726;-72
2021/04/10 09:51:05;;;;;;;3.07;1.03;;;;;;;;;;5117988;28;20289;-71
2021/04/10 09:53:33;;;;;;;4.17;1.10;;;;;;;;;;5118175;28;20292;-71
2021/04/10 09:56:01;;;;;;;3.30;1.13;;;;;;;;;;5117586;28;20252;-70
2021/04/10 09:58:34;;;;;;;3.43;0.90;;;;;;;;;;5117606;28;20243;-72
2021/04/10 10:01:05;;;;;;;2.87;0.90;;;;;;;;;;5121811;28;20232;-72
2021/04/10 10:03:32;;;;;;;1.03;0.80;;;;;;;;;;5121395;28;20638;-72
2021/04/10 10:06:34;;;;;;;1.87;1.00;;;;;;;;;;5121554;27;20225;-72
2021/04/10 10:09:25;;;;;;;1.03;0.80;;;;;;;;;;5094851;28;20592;-72
2021/04/10 10:11:53;;;;;;;2.40;0.80;;;;;;;;;;5120868;28;20296;-71
2021/04/10 10:14:21;;;;;;;1.37;0.90;;;;;;;;;;5121246;28;20589;-72
2021/04/10 10:16:48;;;;;;;1.63;0.83;;;;;;;;;;5121227;28;20663;-72
2021/04/10 10:19:16;;;;;;;3.53;1.00;;;;;;;;;;5121502;28;20243;-72
2021/04/10 10:21:43;;;;;;;2.03;0.90;;;;;;;;;;5121071;28;20335;-71
2021/04/10 10:24:10;;;;;;;1.13;0.80;;;;;;;;;;5118456;28;20256;-72
2021/04/10 10:26:40;;;;;;;1.77;0.90;;;;;;;;;;5108602;28;20209;-72
2021/04/10 10:29:08;;;;;;;3.70;1.03;;;;;;;;;;5108842;28;20201;-72
2021/04/10 10:31:41;;;;;;;1.60;1.00;;;;;;;;;;5108878;28;20254;-73
2021/04/10 10:34:09;;;;;;;7.13;1.23;;;;;;;;;;5104467;28;20279;-73
2021/04/10 10:36:36;;;;;;;3.23;0.97;;;;;;;;;;5109158;28;20232;-72
2021/04/10 10:39:04;;;;;;;2.33;1.17;;;;;;;;;;5115368;28;20257;-70
2021/04/10 10:41:41;;;;;;;2.77;0.90;;;;;;;;;;5107015;28;20249;-71
2021/04/10 10:44:08;;;;;;;2.57;1.00;;;;;;;;;;5108304;28;20284;-71
2021/04/10 10:46:35;;;;;;;2.83;1.30;;;;;;;;;;5109166;28;20233;-73
2021/04/10 10:49:08;;;;;;;2.33;0.70;;;;;;;;;;5109003;27;20293;-74
2021/04/10 10:51:36;;;;;;;1.23;1.17;;;;;;;;;;5102687;28;20221;-75
2021/04/10 10:54:03;;;;;;;0.97;0.93;;;;;;;;;;5106541;28;20233;-73
2021/04/10 10:56:31;;;;;;;4.23;1.07;;;;;;;;;;5108294;28;20224;-74
2021/04/10 10:58:58;;;;;;;3.57;1.20;;;;;;;;;;5108033;28;20288;-74
2021/04/10 11:01:26;;;;;;;2.33;0.80;;;;;;;;;;5109622;28;20641;-74
2021/04/10 11:03:59;;;;;;;3.20;1.10;;;;;;;;;;5120245;28;20566;-74
2021/04/10 11:06:28;;;;;;;1.50;1.00;;;;;;;;;;5120278;28;20232;-73
2021/04/10 11:08:59;;;;;;;3.07;1.00;;;;;;;;;;5118033;28;20254;-71
2021/04/10 11:11:28;;;;;;;2.97;1.10;;;;;;;;;;5109494;28;20227;-72
2021/04/10 11:13:56;;;;;;;1.23;1.10;;;;;;;;;;5106901;28;20204;-72
2021/04/10 11:16:23;;;;;;;3.03;1.00;;;;;;;;;;5107770;28;20247;-73
2021/04/10 11:18:55;;;;;;;1.20;1.03;;;;;;;;;;5111179;28;20207;-73
2021/04/10 11:21:23;;;;;;;1.60;1.10;;;;;;;;;;5120113;28;20236;-72
2021/04/10 11:24:01;;;;;;;1.23;0.80;;;;;;;;;;5120136;28;20268;-74
2021/04/10 11:26:32;;;;;;;0.80;0.80;;;;;;;;;;5119577;28;20632;-72
2021/04/10 11:29:16;;;;;;;1.80;1.00;;;;;;;;;;5119867;28;20707;-74
2021/04/10 11:31:43;;;;;;;1.57;0.80;;;;;;;;;;5119995;28;20279;-72
2021/04/10 11:34:31;;;;;;;1.63;1.07;;;;;;;;;;5113905;28;20247;-74
2021/04/10 11:36:59;;;;;;;2.93;0.90;;;;;;;;;;5105787;28;20243;-72
2021/04/10 11:39:27;;;;;;;1.67;0.90;;;;;;;;;;5105943;28;20281;-73
2021/04/10 11:41:57;;;;;;;2.37;1.13;;;;;;;;;;5106932;28;20221;-72
2021/04/10 11:44:25;;;;;;;1.40;1.27;;;;;;;;;;5107910;28;20623;-71
2021/04/10 11:46:59;;;;;;;3.67;1.23;;;;;;;;;;5109837;28;20193;-73
2021/04/10 11:49:26;;;;;;;6.20;1.33;;;;;;;;;;5107372;28;20238;-73
2021/04/10 11:51:53;;;;;;;0.93;0.87;;;;;;;;;;5105027;28;20277;-72
2021/04/10 11:54:31;;;;;;;3.60;1.00;;;;;;;;;;5107692;28;20277;-72
2021/04/10 11:56:58;;;;;;;3.60;1.13;;;;;;;;;;5106329;28;20283;-72
2021/04/10 11:59:32;;;;;;;2.97;1.00;;;;;;;;;;5105460;28;20301;-72
2021/04/10 12:02:02;;;;;;;2.93;1.30;;;;;;;;;;5107404;28;20775;-72
2021/04/10 12:04:29;;;;;;;1.97;1.17;;;;;;;;;;5104998;28;20282;-73
2021/04/10 12:07:03;;;;;;;6.03;1.43;;;;;;;;;;5106773;28;20707;-73
2021/04/10 12:09:35;;;;;;;2.40;1.20;;;;;;;;;;5109044;28;20284;-74
2021/04/10 12:12:02;;;;;;;3.27;1.30;;;;;;;;;;5106832;28;20194;-73
2021/04/10 12:14:29;;;;;;;6.57;1.23;;;;;;;;;;5106503;28;20300;-73
2021/04/10 12:16:56;;;;;;;1.50;0.80;;;;;;;;;;5106502;28;20264;-73
2021/04/10 12:19:24;;;;;;;3.33;0.90;;;;;;;;;;5106427;28;20605;-71
2021/04/10 12:21:51;;;;;;;7.33;1.30;;;;;;;;;;5103801;28;20274;-71
2021/04/10 12:24:18;;;;;;;2.47;1.03;;;;;;;;;;5106234;28;20595;-69
2021/04/10 12:26:47;;;;;;;6.70;1.10;;;;;;;;;;5106120;28;20236;-70
2021/04/10 12:29:14;;;;;;;3.20;1.03;;;;;;;;;;5106301;28;20731;-72
2021/04/10 12:31:41;;;;;;;3.70;1.17;;;;;;;;;;5106466;28;20205;-71
2021/04/10 12:34:08;;;;;;;4.60;1.20;;;;;;;;;;5104984;28;20261;-71
2021/04/10 12:36:35;;;;;;;2.90;1.23;;;;;;;;;;5105115;28;20261;-70
2021/04/10 12:39:03;;;;;;;1.90;0.90;;;;;;;;;;5106172;28;20229;-69
2021/04/10 12:41:31;;;;;;;1.77;1.10;;;;;;;;;;5104821;28;20203;-71
2021/04/10 12:43:59;;;;;;;6.23;1.13;;;;;;;;;;5104835;28;20240;-71
2021/04/10 12:46:26;;;;;;;2.10;1.07;;;;;;;;;;5106916;28;20284;-71
2021/04/10 12:48:53;;;;;;;3.00;0.87;;;;;;;;;;5105015;28;20269;-71
2021/04/10 12:51:21;;;;;;;1.73;0.83;;;;;;;;;;5107632;28;20216;-72
2021/04/10 12:53:48;;;;;;;3.17;1.17;;;;;;;;;;5116853;28;20267;-69
2021/04/10 12:56:20;;;;;;;4.13;1.37;;;;;;;;;;5115943;28;20312;-70
2021/04/10 12:58:47;;;;;;;2.13;1.40;;;;;;;;;;5116517;28;20632;-70
2021/04/10 13:01:15;;;;;;;3.50;1.10;;;;;;;;;;5117322;28;20205;-70
2021/04/10 13:03:42;;;;;;;5.03;1.10;;;;;;;;;;5117505;28;20320;-68
2021/04/10 13:06:09;;;;;;;3.03;0.77;;;;;;;;;;5117739;28;20319;-70
2021/04/10 13:08:36;;;;;;;4.10;1.43;;;;;;;;;;5117461;28;20287;-70
2021/04/10 13:11:03;;;;;;;3.10;1.10;;;;;;;;;;5118081;28;20213;-68
2021/04/10 13:13:30;;;;;;;3.17;1.00;;;;;;;;;;5118173;28;20229;-70
2021/04/10 13:15:57;;;;;;;5.33;1.20;;;;;;;;;;5118358;28;20312;-70
2021/04/10 13:18:25;;;;;;;3.53;1.10;;;;;;;;;;5118285;28;20307;-70
2021/04/10 13:20:52;;;;;;;3.30;1.20;;;;;;;;;;5117933;28;20288;-71
2021/04/10 13:23:19;;;;;;;3.17;0.90;;;;;;;;;;5117845;28;20271;-71
2021/04/10 13:25:46;;;;;;;4.13;0.93;;;;;;;;;;5117925;28;20260;-71
2021/04/10 13:28:14;;;;;;;4.23;1.33;;;;;;;;;;5117895;28;20272;-69
2021/04/10 13:30:41;;;;;;;2.37;1.10;;;;;;;;;;5118040;28;20244;-72
2021/04/10 13:33:08;;;;;;;1.50;0.90;;;;;;;;;;5118170;27;20686;-72
2021/04/10 13:35:35;;;;;;;1.80;1.10;;;;;;;;;;5129241;27;20282;-71
2021/04/10 13:38:03;;;;;;;1.23;1.00;;;;;;;;;;5121971;28;20212;-71
2021/04/10 13:40:30;;;;;;;3.67;0.80;;;;;;;;;;5122431;28;20243;-72
2021/04/10 13:42:57;;;;;;;2.07;0.93;;;;;;;;;;5121408;28;20228;-71
2021/04/10 13:45:46;;;;;;;1.87;0.93;;;;;;;;;;5121991;28;20221;-71
2021/04/10 13:48:13;;;;;;;3.83;1.00;;;;;;;;;;5122011;28;20283;-71
2021/04/10 13:50:41;;;;;;;1.77;1.10;;;;;;;;;;5121787;28;20205;-70
2021/04/10 13:53:08;;;;;;;5.17;1.23;;;;;;;;;;5121989;28;20239;-73
2021/04/10 13:55:35;;;;;;;2.13;0.93;;;;;;;;;;5121474;28;20256;-72
2021/04/10 13:58:02;;;;;;;3.47;1.20;;;;;;;;;;5121472;28;20215;-72
2021/04/10 14:00:29;;;;;;;7.10;1.87;;;;;;;;;;5121494;28;20287;-70
2021/04/10 14:02:56;;;;;;;3.67;1.03;;;;;;;;;;5120832;28;20235;-73
2021/04/10 14:05:25;;;;;;;3.50;1.17;;;;;;;;;;5123638;27;20216;-72
2021/04/10 14:07:52;;;;;;;5.47;1.03;;;;;;;;;;5118506;28;20229;-73
2021/04/10 14:10:19;;;;;;;2.30;0.90;;;;;;;;;;5121543;27;20201;-73
2021/04/10 14:12:47;;;;;;;1.80;1.23;;;;;;;;;;5120605;28;20221;-73
2021/04/10 14:15:15;;;;;;;2.37;1.13;;;;;;;;;;5119980;28;20284;-72
2021/04/10 14:17:42;;;;;;;4.07;0.93;;;;;;;;;;5131877;27;20264;-72
2021/04/10 14:20:10;;;;;;;2.73;1.07;;;;;;;;;;5141810;27;20631;-73
2021/04/10 14:22:38;;;;;;;2.33;0.97;;;;;;;;;;5141693;27;20307;-73
2021/04/10 14:25:06;;;;;;;2.27;1.00;;;;;;;;;;5140973;27;20240;-73
2021/04/10 14:27:33;;;;;;;2.23;0.97;;;;;;;;;;5141457;27;20204;-73
2021/04/10 14:30:00;;;;;;;3.67;1.00;;;;;;;;;;5141493;27;20258;-72
2021/04/10 14:32:28;;;;;;;7.03;0.90;;;;;;;;;;5141594;27;20283;-73
2021/04/10 14:34:55;;;;;;;2.67;1.27;;;;;;;;;;5134125;27;20227;-72
2021/04/10 14:37:22;;;;;;;1.90;1.23;;;;;;;;;;5121230;28;20288;-73
2021/04/10 14:39:50;;;;;;;3.23;0.93;;;;;;;;;;5120693;27;20225;-72
2021/04/10 14:42:17;;;;;;;2.57;1.30;;;;;;;;;;5120667;28;20799;-73
2021/04/10 14:44:44;;;;;;;2.37;0.93;;;;;;;;;;5120789;28;20283;-73
2021/04/10 14:47:12;;;;;;;2.77;1.13;;;;;;;;;;5120890;28;20205;-73
2021/04/10 14:49:39;;;;;;;5.20;0.93;;;;;;;;;;5140827;27;20906;-73
2021/04/10 14:52:06;;;;;;;6.53;2.03;;;;;;;;;;5141213;27;20222;-73